createdAt,value
2022-12-23T00:01:00.549Z,26.10
2022-12-23T00:03:28.022Z,22.67
2022-12-23T00:05:55.227Z,13.48
2022-12-23T00:08:22.540Z,14.00
2022-12-23T00:10:50.114Z,14.73
2022-12-23T00:13:35.951Z,19.67
2022-12-23T00:16:03.878Z,16.33
2022-12-23T00:18:31.040Z,10.85
2022-12-23T00:21:08.072Z,12.20
2022-12-23T00:23:36.399Z,9.75
2022-12-23T00:26:03.618Z,7.65
2022-12-23T00:28:30.926Z,5.63
2022-12-23T00:31:02.105Z,5.70
2022-12-23T00:33:32.888Z,5.78
2022-12-23T00:36:00.099Z,5.40
2022-12-23T00:38:46.017Z,4.07
2022-12-23T00:41:32.736Z,6.70
2022-12-23T00:43:59.921Z,6.07
2022-12-23T00:46:27.243Z,5.47
2022-12-23T00:49:12.928Z,4.32
2022-12-23T00:51:40.083Z,5.82
2022-12-23T00:54:07.307Z,4.07
2022-12-23T00:56:34.483Z,5.65
2022-12-23T00:59:01.642Z,5.72
2022-12-23T01:01:47.770Z,4.07
2022-12-23T01:04:33.999Z,4.45
2022-12-23T01:07:01.312Z,4.43
2022-12-23T01:09:28.442Z,4.78
2022-12-23T01:11:55.625Z,4.28
2022-12-23T01:14:22.847Z,3.97
2022-12-23T01:16:50.079Z,6.50
2022-12-23T01:19:17.480Z,7.57
2022-12-23T01:21:44.619Z,13.00
2022-12-23T01:24:11.775Z,11.23
2022-12-23T01:26:38.949Z,18.55
2022-12-23T01:29:06.126Z,12.53
2022-12-23T01:31:33.416Z,6.30
2022-12-23T01:34:00.572Z,3.90
2022-12-23T01:36:27.736Z,4.00
2022-12-23T01:38:56.046Z,5.55
2022-12-23T01:41:46.418Z,3.40
2022-12-23T01:44:33.063Z,3.38
2022-12-23T01:47:00.204Z,7.25
2022-12-23T01:49:27.355Z,13.23
2022-12-23T01:51:54.523Z,12.95
2022-12-23T01:54:21.675Z,14.55
2022-12-23T01:56:48.830Z,7.77
2022-12-23T01:59:35.992Z,8.07
2022-12-23T02:02:21.975Z,4.83
2022-12-23T02:04:49.428Z,4.73
2022-12-23T02:07:35.069Z,5.20
2022-12-23T02:10:02.236Z,3.97
2022-12-23T02:12:35.334Z,4.63
2022-12-23T02:15:39.097Z,5.47
2022-12-23T02:18:24.596Z,5.50
2022-12-23T02:21:11.257Z,4.35
2022-12-23T02:23:50.103Z,8.87
2022-12-23T02:26:38.879Z,7.23
2022-12-23T02:29:12.174Z,7.85
2022-12-23T02:31:51.245Z,9.40
2022-12-23T02:34:27.375Z,18.00
2022-12-23T02:37:17.205Z,20.63
2022-12-23T02:39:44.354Z,17.23
2022-12-23T02:42:17.875Z,22.57
2022-12-23T02:44:49.366Z,18.97
2022-12-23T02:47:20.301Z,22.10
2022-12-23T02:49:54.759Z,22.20
2022-12-23T02:52:22.497Z,18.70
2022-12-23T02:54:51.289Z,21.97
2022-12-23T02:57:19.617Z,22.00
2022-12-23T02:59:47.470Z,19.30
2022-12-23T03:02:14.778Z,12.53
2022-12-23T03:04:42.438Z,12.83
2022-12-23T03:07:29.982Z,7.30
2022-12-23T03:10:09.183Z,5.97
2022-12-23T03:12:55.091Z,3.90
2022-12-23T03:15:34.502Z,4.57
2022-12-23T03:18:06.481Z,4.57
2022-12-23T03:20:52.532Z,5.23
2022-12-23T03:23:24.517Z,3.97
2022-12-23T03:25:59.051Z,3.95
2022-12-23T03:28:26.207Z,9.67
2022-12-23T03:30:53.718Z,11.03
2022-12-23T03:33:22.100Z,13.10
2022-12-23T03:35:53.792Z,18.83
2022-12-23T03:38:21.011Z,44.33
2022-12-23T03:40:49.322Z,47.00
2022-12-23T03:43:18.669Z,38.30
2022-12-23T03:45:47.850Z,28.45
2022-12-23T03:48:21.099Z,28.97
2022-12-23T03:50:48.550Z,29.97
2022-12-23T03:53:36.058Z,26.47
2022-12-23T03:56:04.832Z,26.37
2022-12-23T03:58:34.955Z,26.17
2022-12-23T04:01:13.745Z,26.43
2022-12-23T04:03:49.292Z,24.70
2022-12-23T04:06:16.851Z,23.23
2022-12-23T04:08:44.023Z,25.00
2022-12-23T04:11:11.169Z,23.60
2022-12-23T04:13:38.384Z,36.87
2022-12-23T04:16:05.835Z,44.30
2022-12-23T04:18:33.100Z,33.43
2022-12-23T04:21:00.323Z,29.67
2022-12-23T04:23:27.501Z,26.17
2022-12-23T04:25:54.708Z,31.90
2022-12-23T04:28:21.955Z,31.10
2022-12-23T04:30:49.088Z,35.17
2022-12-23T04:33:16.292Z,38.57
2022-12-23T04:35:43.490Z,38.97
2022-12-23T04:38:10.667Z,33.97
2022-12-23T04:40:37.825Z,38.80
2022-12-23T04:43:05.005Z,25.63
2022-12-23T04:45:32.826Z,42.10
2022-12-23T04:47:59.977Z,32.70
2022-12-23T04:50:27.171Z,27.93
2022-12-23T04:52:54.355Z,32.00
2022-12-23T04:55:21.581Z,26.57
2022-12-23T04:57:48.779Z,24.87
2022-12-23T05:00:16.156Z,31.57
2022-12-23T05:02:43.436Z,31.70
2022-12-23T05:05:10.661Z,29.70
2022-12-23T05:07:37.838Z,23.40
2022-12-23T05:10:05.048Z,32.47
2022-12-23T05:12:32.245Z,27.53
2022-12-23T05:14:59.417Z,32.53
2022-12-23T05:17:26.619Z,27.33
2022-12-23T05:19:53.770Z,28.20
2022-12-23T05:22:20.892Z,30.80
2022-12-23T05:24:48.097Z,36.40
2022-12-23T05:27:15.345Z,36.33
2022-12-23T05:29:42.478Z,34.20
2022-12-23T05:32:09.713Z,35.63
2022-12-23T05:34:36.995Z,34.93
2022-12-23T05:37:04.183Z,39.83
2022-12-23T05:39:31.379Z,35.77
2022-12-23T05:41:58.642Z,31.80
2022-12-23T05:44:25.809Z,39.10
2022-12-23T05:46:53.018Z,41.37
2022-12-23T05:49:20.278Z,47.87
2022-12-23T05:51:47.480Z,46.43
2022-12-23T05:54:14.660Z,57.60
2022-12-23T05:56:41.857Z,35.53
2022-12-23T05:59:09.337Z,36.37
2022-12-23T06:01:36.627Z,48.33
2022-12-23T06:04:04.030Z,50.77
2022-12-23T06:06:31.325Z,43.53
2022-12-23T06:09:00.170Z,44.63
2022-12-23T06:11:27.565Z,41.23
2022-12-23T06:13:54.783Z,47.13
2022-12-23T06:16:22.216Z,47.83
2022-12-23T06:18:49.419Z,49.53
2022-12-23T06:21:16.618Z,51.37
2022-12-23T06:23:43.819Z,53.87
2022-12-23T06:26:10.993Z,43.20
2022-12-23T06:28:38.128Z,55.43
2022-12-23T06:31:05.509Z,50.87
2022-12-23T06:33:32.691Z,42.03
2022-12-23T06:35:59.859Z,42.80
2022-12-23T06:38:27.102Z,27.90
2022-12-23T06:40:54.272Z,24.20
2022-12-23T06:43:21.774Z,21.03
2022-12-23T06:45:49.665Z,27.47
2022-12-23T06:48:17.030Z,33.60
2022-12-23T06:50:44.314Z,32.60
2022-12-23T06:53:11.483Z,29.47
2022-12-23T06:55:38.666Z,35.80
2022-12-23T06:58:05.974Z,33.43
2022-12-23T07:00:33.833Z,34.37
2022-12-23T07:03:01.223Z,40.47
2022-12-23T07:05:34.933Z,42.43
2022-12-23T07:08:04.054Z,50.40
2022-12-23T07:10:31.181Z,48.00
2022-12-23T07:12:58.352Z,53.63
2022-12-23T07:15:25.554Z,50.00
2022-12-23T07:17:52.676Z,46.53
2022-12-23T07:20:20.003Z,49.83
2022-12-23T07:22:47.154Z,50.00
2022-12-23T07:25:14.314Z,62.73
2022-12-23T07:27:41.474Z,66.00
2022-12-23T07:30:08.974Z,54.60
2022-12-23T07:32:36.096Z,55.57
2022-12-23T07:35:03.252Z,65.93
2022-12-23T07:37:30.465Z,82.07
2022-12-23T07:39:57.650Z,70.87
2022-12-23T07:42:44.271Z,69.63
2022-12-23T07:45:12.102Z,70.37
2022-12-23T07:47:39.310Z,72.60
2022-12-23T07:50:06.829Z,72.33
2022-12-23T07:52:34.037Z,85.60
2022-12-23T07:55:01.181Z,86.63
2022-12-23T07:57:29.353Z,99.13
2022-12-23T07:59:57.160Z,88.93
2022-12-23T08:02:25.363Z,100.30
2022-12-23T08:04:52.886Z,91.03
2022-12-23T08:07:20.078Z,38.50
2022-12-23T08:09:47.198Z,10.07
2022-12-23T08:12:14.354Z,5.37
2022-12-23T08:14:41.507Z,5.60
2022-12-23T08:17:08.935Z,7.10
2022-12-23T08:19:36.174Z,10.10
2022-12-23T08:22:03.393Z,6.30
2022-12-23T08:24:30.542Z,8.30
2022-12-23T08:26:58.232Z,11.20
2022-12-23T08:29:25.394Z,8.43
2022-12-23T08:31:54.134Z,7.43
2022-12-23T08:34:21.314Z,9.50
2022-12-23T08:36:48.530Z,7.40
2022-12-23T08:39:15.653Z,11.88
2022-12-23T08:41:44.530Z,5.72
2022-12-23T08:44:11.776Z,7.60
2022-12-23T08:46:39.124Z,7.70
2022-12-23T08:49:06.474Z,7.20
2022-12-23T08:51:33.708Z,6.00
2022-12-23T08:54:01.648Z,16.08
2022-12-23T08:56:30.098Z,20.77
2022-12-23T08:58:57.316Z,52.70
2022-12-23T09:01:25.329Z,48.88
2022-12-23T09:03:52.730Z,49.63
2022-12-23T09:06:26.473Z,45.35
2022-12-23T09:08:56.073Z,40.00
2022-12-23T09:11:23.789Z,35.30
2022-12-23T09:13:50.923Z,39.22
2022-12-23T09:16:18.080Z,33.10
2022-12-23T09:18:45.295Z,35.70
2022-12-23T09:21:14.098Z,33.40
2022-12-23T09:23:41.356Z,39.17
2022-12-23T09:26:08.822Z,41.85
2022-12-23T09:28:36.019Z,50.38
2022-12-23T09:31:09.597Z,52.50
2022-12-23T09:33:36.954Z,54.13
2022-12-23T09:36:04.171Z,53.88
2022-12-23T09:38:31.383Z,52.45
2022-12-23T09:41:17.264Z,42.72
2022-12-23T09:43:48.368Z,61.42
2022-12-23T09:46:19.858Z,46.25
2022-12-23T09:48:51.718Z,50.25
2022-12-23T09:51:19.241Z,59.75
2022-12-23T09:53:57.229Z,42.00
2022-12-23T09:57:02.992Z,34.63
2022-12-23T09:59:48.250Z,30.33
2022-12-23T10:02:27.449Z,25.52
2022-12-23T10:05:02.850Z,27.67
2022-12-23T10:07:38.079Z,31.40
2022-12-23T10:10:25.565Z,30.25
2022-12-23T10:12:53.045Z,30.20
2022-12-23T10:15:31.220Z,25.77
2022-12-23T10:17:59.994Z,17.45
2022-12-23T10:20:38.413Z,56.75
2022-12-23T10:23:06.315Z,49.97
2022-12-23T10:25:34.389Z,58.17
2022-12-23T10:28:01.573Z,44.47
2022-12-23T10:33:19.689Z,60.28
2022-12-23T10:35:53.699Z,76.95
2022-12-23T10:38:33.078Z,22.10
2022-12-23T10:41:07.077Z,19.65
2022-12-23T10:43:48.181Z,14.52
2022-12-23T10:46:29.200Z,16.13
2022-12-23T10:49:02.593Z,12.77
2022-12-23T10:51:31.324Z,11.98
2022-12-23T10:54:03.273Z,10.77
2022-12-23T10:56:30.830Z,11.07
2022-12-23T10:58:58.737Z,11.02
2022-12-23T11:01:27.547Z,9.45
2022-12-23T11:04:21.630Z,9.35
2022-12-23T11:07:10.603Z,8.82
2022-12-23T11:09:39.079Z,9.15
2022-12-23T11:12:07.118Z,13.05
2022-12-23T11:14:50.591Z,11.32
2022-12-23T11:17:24.077Z,13.05
2022-12-23T11:20:07.868Z,11.93
2022-12-23T11:22:35.042Z,14.45
2022-12-23T11:25:31.717Z,29.85
2022-12-23T11:28:03.037Z,13.18
2022-12-23T11:30:30.654Z,15.93
2022-12-23T11:32:57.861Z,14.02
2022-12-23T11:35:31.884Z,9.52
2022-12-23T11:37:59.518Z,9.38
2022-12-23T11:40:27.737Z,12.75
2022-12-23T11:42:57.148Z,10.70
2022-12-23T11:45:25.038Z,13.38
2022-12-23T11:47:52.285Z,13.48
2022-12-23T11:50:29.814Z,17.45
2022-12-23T11:53:01.532Z,18.25
2022-12-23T11:55:29.890Z,13.07
2022-12-23T11:57:57.133Z,10.57
2022-12-23T12:00:28.882Z,11.20
2022-12-23T12:02:56.541Z,13.98
2022-12-23T12:05:26.386Z,15.25
2022-12-23T12:07:53.563Z,13.23
2022-12-23T12:10:27.457Z,11.65
2022-12-23T12:12:56.562Z,23.73
2022-12-23T12:15:26.285Z,21.33
2022-12-23T12:17:53.490Z,25.05
2022-12-23T12:20:23.759Z,17.05
2022-12-23T12:22:55.430Z,39.85
2022-12-23T12:25:23.706Z,50.50
2022-12-23T12:27:53.160Z,65.93
2022-12-23T12:30:20.813Z,67.47
2022-12-23T12:32:48.014Z,67.10
2022-12-23T12:35:20.568Z,68.60
2022-12-23T12:37:58.173Z,60.15
2022-12-23T12:40:26.009Z,87.55
2022-12-23T12:43:00.703Z,58.67
2022-12-23T12:45:29.573Z,71.15
2022-12-23T12:48:01.408Z,80.00
2022-12-23T12:50:34.825Z,79.63
2022-12-23T12:53:04.761Z,61.70
2022-12-23T12:55:36.058Z,64.65
2022-12-23T12:58:04.109Z,90.43
2022-12-23T13:00:31.364Z,99.20
2022-12-23T13:03:17.379Z,85.53
2022-12-23T13:06:04.797Z,53.00
2022-12-23T13:08:35.904Z,27.98
2022-12-23T13:11:06.520Z,34.08
2022-12-23T13:13:40.363Z,25.73
2022-12-23T13:16:11.618Z,17.00
2022-12-23T13:18:41.673Z,21.25
2022-12-23T13:21:12.297Z,31.27
2022-12-23T13:23:44.473Z,23.23
2022-12-23T13:26:18.275Z,12.80
2022-12-23T13:28:45.466Z,12.25
2022-12-23T13:31:34.079Z,12.18
2022-12-23T13:34:27.717Z,18.13
2022-12-23T13:37:00.704Z,17.85
2022-12-23T13:39:31.393Z,19.23
2022-12-23T13:42:04.830Z,26.80
2022-12-23T13:44:33.589Z,42.97
2022-12-23T13:47:03.902Z,23.60
2022-12-23T13:49:52.240Z,34.90
2022-12-23T13:52:25.462Z,34.55
2022-12-23T13:54:55.475Z,46.65
2022-12-23T13:57:34.779Z,43.53
2022-12-23T14:00:06.299Z,38.97
2022-12-23T14:02:36.706Z,39.20
2022-12-23T14:05:04.871Z,41.80
2022-12-23T14:07:32.822Z,35.55
2022-12-23T14:10:09.654Z,43.30
2022-12-23T14:12:37.622Z,39.85
2022-12-23T14:15:17.169Z,36.13
2022-12-23T14:18:02.701Z,33.13
2022-12-23T14:20:39.864Z,26.52
2022-12-23T14:23:09.826Z,44.67
2022-12-23T14:25:51.905Z,102.50
2022-12-23T14:28:22.356Z,60.67
2022-12-23T14:30:49.607Z,38.92
2022-12-23T14:33:19.617Z,27.10
2022-12-23T14:35:46.774Z,38.80
2022-12-23T14:38:16.923Z,46.17
2022-12-23T14:40:44.251Z,108.90
2022-12-23T14:43:23.594Z,52.33
2022-12-23T14:45:51.342Z,45.83
2022-12-23T14:48:37.109Z,64.00
2022-12-23T14:51:10.785Z,54.17
2022-12-23T14:53:38.642Z,62.45
2022-12-23T14:56:08.950Z,79.30
2022-12-23T14:58:40.453Z,33.97
2022-12-23T15:01:12.468Z,43.40
2022-12-23T15:03:53.282Z,40.20
2022-12-23T15:06:30.430Z,122.17
2022-12-23T15:08:57.721Z,67.20
2022-12-23T15:11:29.470Z,43.70
2022-12-23T15:13:57.352Z,52.10
2022-12-23T15:16:29.993Z,50.27
2022-12-23T15:18:58.205Z,61.00
2022-12-23T15:21:29.575Z,56.77
2022-12-23T15:23:56.768Z,70.37
2022-12-23T15:26:25.665Z,77.95
2022-12-23T15:28:52.913Z,83.70
2022-12-23T15:31:24.658Z,134.65
2022-12-23T15:34:02.974Z,182.30
2022-12-23T15:36:32.301Z,150.32
2022-12-23T15:39:00.433Z,134.80
2022-12-23T15:41:27.620Z,125.22
2022-12-23T15:43:57.367Z,116.70
2022-12-23T15:46:29.836Z,129.23
2022-12-23T15:48:57.710Z,127.57
2022-12-23T15:51:57.575Z,141.27
2022-12-23T15:54:19.128Z,118.60
2022-12-23T15:56:46.964Z,113.93
2022-12-23T15:59:17.168Z,144.83
2022-12-23T16:01:44.399Z,273.05
2022-12-23T16:04:17.703Z,216.32
2022-12-23T16:06:48.209Z,174.63
2022-12-23T16:09:18.844Z,191.57
2022-12-23T16:11:56.738Z,170.60
2022-12-23T16:14:25.978Z,140.77
2022-12-23T16:16:53.186Z,124.73
2022-12-23T16:19:39.097Z,117.83
2022-12-23T16:22:14.482Z,154.63
2022-12-23T16:24:46.154Z,177.10
2022-12-23T16:27:16.738Z,150.87
2022-12-23T16:29:44.046Z,131.53
2022-12-23T16:32:15.934Z,139.47
2022-12-23T16:34:43.586Z,134.50
2022-12-23T16:37:10.762Z,111.57
2022-12-23T16:39:37.968Z,63.27
2022-12-23T16:42:05.314Z,144.87
2022-12-23T16:44:32.445Z,124.50
2022-12-23T16:47:00.070Z,430.20
2022-12-23T16:49:33.145Z,210.50
2022-12-23T16:52:00.751Z,192.23
2022-12-23T16:54:28.156Z,166.97
2022-12-23T16:56:55.405Z,118.47
2022-12-23T16:59:22.617Z,125.00
2022-12-23T17:01:49.918Z,87.33
2022-12-23T17:04:17.157Z,99.77
2022-12-23T17:06:46.541Z,70.17
2022-12-23T17:09:13.882Z,48.77
2022-12-23T17:11:41.058Z,49.37
2022-12-23T17:14:15.472Z,58.53
2022-12-23T17:16:43.049Z,93.07
2022-12-23T17:19:10.338Z,83.90
2022-12-23T17:21:38.925Z,75.23
2022-12-23T17:24:11.959Z,86.03
2022-12-23T17:26:39.137Z,22.67
2022-12-23T17:29:06.378Z,17.60
2022-12-23T17:31:34.640Z,21.87
2022-12-23T17:34:02.244Z,114.37
2022-12-23T17:36:29.726Z,168.70
2022-12-23T17:38:56.988Z,107.87
2022-12-23T17:41:26.445Z,77.33
2022-12-23T17:43:53.640Z,65.97
2022-12-23T17:46:21.169Z,61.83
2022-12-23T17:48:48.436Z,68.70
2022-12-23T17:51:16.383Z,133.30
2022-12-23T17:53:43.755Z,187.53
2022-12-23T17:56:14.649Z,183.93
2022-12-23T17:58:42.216Z,120.20
2022-12-23T18:01:19.865Z,97.20
2022-12-23T18:03:47.226Z,125.43
2022-12-23T18:06:14.947Z,116.00
2022-12-23T18:08:42.250Z,134.80
2022-12-23T18:11:09.792Z,140.63
2022-12-23T18:13:37.009Z,330.73
2022-12-23T18:16:04.221Z,234.43
2022-12-23T18:18:43.484Z,340.20
2022-12-23T18:21:14.779Z,226.40
2022-12-23T18:23:42.376Z,188.60
2022-12-23T18:26:12.131Z,234.57
2022-12-23T18:28:39.307Z,123.03
2022-12-23T18:31:06.563Z,194.97
2022-12-23T18:33:35.472Z,251.60
2022-12-23T18:36:02.677Z,213.63
2022-12-23T18:38:29.881Z,252.77
2022-12-23T18:40:58.121Z,254.73
2022-12-23T18:43:25.690Z,156.90
2022-12-23T18:45:54.060Z,177.07
2022-12-23T18:48:21.686Z,185.13
2022-12-23T18:50:49.011Z,145.90
2022-12-23T18:53:24.681Z,283.07
2022-12-23T18:55:52.326Z,244.00
2022-12-23T18:58:19.525Z,284.83
2022-12-23T19:00:46.807Z,236.80
2022-12-23T19:03:27.432Z,319.63
2022-12-23T19:05:54.816Z,287.80
2022-12-23T19:08:26.697Z,447.07
2022-12-23T19:10:55.036Z,459.30
2022-12-23T19:13:22.229Z,333.07
2022-12-23T19:15:49.472Z,255.40
2022-12-23T19:18:17.255Z,318.13
2022-12-23T19:20:44.906Z,441.53
2022-12-23T19:23:12.110Z,465.80
2022-12-23T19:25:44.274Z,304.80
2022-12-23T19:28:14.886Z,290.77
2022-12-23T19:30:42.411Z,310.20
2022-12-23T19:33:09.811Z,256.33
2022-12-23T19:35:36.978Z,313.53
2022-12-23T19:38:04.557Z,258.20
2022-12-23T19:40:31.797Z,346.77
2022-12-23T19:42:59.011Z,383.33
2022-12-23T19:45:26.319Z,363.97
2022-12-23T19:47:53.936Z,322.97
2022-12-23T19:50:22.267Z,299.83
2022-12-23T19:52:52.657Z,333.50
2022-12-23T19:55:19.823Z,316.47
2022-12-23T19:57:46.938Z,306.60
2022-12-23T20:00:15.876Z,207.00
2022-12-23T20:02:43.201Z,208.40
2022-12-23T20:05:10.486Z,204.20
2022-12-23T20:07:37.776Z,215.17
2022-12-23T20:10:05.582Z,224.03
2022-12-23T20:12:32.713Z,341.83
2022-12-23T20:14:59.903Z,520.27
2022-12-23T20:17:27.124Z,378.30
2022-12-23T20:19:54.333Z,406.13
2022-12-23T20:22:21.498Z,419.30
2022-12-23T20:24:49.075Z,356.17
2022-12-23T20:27:18.334Z,384.43
2022-12-23T20:29:48.546Z,288.87
2022-12-23T20:32:15.676Z,220.00
2022-12-23T20:34:42.841Z,168.30
2022-12-23T20:37:11.694Z,182.23
2022-12-23T20:39:38.808Z,126.83
2022-12-23T20:42:06.016Z,149.67
2022-12-23T20:44:35.674Z,145.07
2022-12-23T20:47:03.233Z,126.87
2022-12-23T20:49:30.566Z,87.30
2022-12-23T20:51:57.839Z,60.73
2022-12-23T20:54:31.598Z,54.83
2022-12-23T20:57:00.214Z,62.93
2022-12-23T20:59:27.400Z,74.43
2022-12-23T21:01:54.923Z,118.53
2022-12-23T21:04:22.738Z,118.67
2022-12-23T21:06:50.049Z,140.70
2022-12-23T21:09:17.282Z,132.83
2022-12-23T21:11:45.084Z,87.87
2022-12-23T21:14:12.434Z,85.03
2022-12-23T21:16:39.750Z,274.23
2022-12-23T21:19:07.568Z,259.58
2022-12-23T21:21:34.845Z,352.23
2022-12-23T21:24:04.290Z,312.37
2022-12-23T21:26:32.680Z,267.77
2022-12-23T21:29:00.228Z,216.20
2022-12-23T21:31:27.576Z,232.13
2022-12-23T21:33:54.904Z,220.93
2022-12-23T21:36:25.055Z,184.23
2022-12-23T21:38:52.352Z,183.90
2022-12-23T21:41:23.166Z,179.83
2022-12-23T21:43:50.472Z,166.10
2022-12-23T21:46:18.559Z,143.73
2022-12-23T21:48:45.843Z,144.50
2022-12-23T21:51:13.101Z,174.93
2022-12-23T21:53:40.316Z,160.77
2022-12-23T21:56:08.801Z,166.20
2022-12-23T21:58:35.981Z,182.57
2022-12-23T22:01:18.917Z,172.07
2022-12-23T22:03:46.436Z,183.27
2022-12-23T22:06:14.844Z,181.63
2022-12-23T22:08:42.068Z,205.00
2022-12-23T22:11:16.253Z,172.53
2022-12-23T22:13:43.514Z,151.07
2022-12-23T22:16:14.565Z,145.53
2022-12-23T22:18:41.911Z,98.37
2022-12-23T22:21:10.013Z,94.83
2022-12-23T22:23:37.688Z,117.23
2022-12-23T22:26:04.907Z,118.77
2022-12-23T22:28:32.541Z,110.00
2022-12-23T22:31:03.529Z,110.33
2022-12-23T22:33:31.695Z,155.27
2022-12-23T22:35:58.903Z,140.97
2022-12-23T22:38:26.183Z,145.27
2022-12-23T22:40:53.471Z,174.73
2022-12-23T22:43:20.653Z,139.50
2022-12-23T22:45:47.927Z,135.23
2022-12-23T22:51:09.478Z,171.50
2022-12-23T22:53:36.823Z,163.67
2022-12-23T22:56:04.220Z,136.40
2022-12-23T22:58:31.630Z,192.17
2022-12-23T23:00:58.808Z,159.97
2022-12-23T23:03:26.379Z,125.80
2022-12-23T23:05:59.493Z,176.87
2022-12-23T23:08:26.786Z,161.23
2022-12-23T23:10:54.108Z,142.43
2022-12-23T23:13:21.304Z,114.60
2022-12-23T23:15:48.856Z,127.03
2022-12-23T23:18:16.130Z,101.70
2022-12-23T23:20:43.357Z,104.20
2022-12-23T23:23:10.564Z,105.90
2022-12-23T23:25:37.786Z,93.90
2022-12-23T23:28:05.178Z,92.40
2022-12-23T23:30:32.389Z,107.53
2022-12-23T23:32:59.659Z,102.17
2022-12-23T23:35:26.836Z,104.40
2022-12-23T23:37:54.002Z,131.80
2022-12-23T23:40:21.208Z,98.00
2022-12-23T23:42:50.838Z,81.33
2022-12-23T23:45:17.978Z,93.07
2022-12-23T23:47:45.244Z,104.70
2022-12-23T23:50:12.436Z,105.53
2022-12-23T23:52:39.583Z,94.03
2022-12-23T23:55:07.031Z,94.47
2022-12-23T23:57:34.261Z,65.33
